Peoria, IL (61603)

8:03 PM CDT on March 29, 2015 (GMT -0500)
DracoPhyre PWS | Change Station
CLOSE
Current Station
Personal Weather Station
Location: Peoria, IL
Elevation: 640 ft
Nearby Weather Stations

Elev 640 ft 40.72 °N, 89.59 °W | Updated 10 seconds ago

Overcast
Overcast
52.7 °F
Feels Like 52.7 °F
N
0.0
Wind Variable Wind from ENE
Gusts 9.2 mph

Today
High -- | Low -- °F
--% Chance of Precip.
Yesterday
High -- | Low -- °F
Precip. -- in
6:47 AM 7:19 PM
Waxing Gibbous, 75% visible
Pressure 29.92 in
Visibility 10.0 miles
Clouds Few 4700 ft
Dew Point 44 °F
Humidity 73%
Rainfall 0.00 in
Snow Depth Not available.
UV 0 out of 12
Pollen 5.00 out of 12
Ozone Good
PM2.5 Good
Flu Activity Regional
METAR KPIA 300054Z 28009KT 10SM FEW047 13/05 A2991 RMK AO2 SLP132 T01280050

More Conditions Fewer Conditions

Pressure 29.92 in
Visibility 10.0 miles
Clouds Few 4700 ft
Dew Point 44 °F
Humidity 73%
Rainfall 0.00 in
Snow Depth Not available.
UV 0 out of 12
Pollen 5.00 out of 12
Ozone Good
PM2.5 Good
Flu Activity Regional
METAR KPIA 300054Z 28009KT 10SM FEW047 13/05 A2991 RMK AO2 SLP132 T01280050

More Conditions Fewer Conditions

10-Day Weather Forecast

Almanac

Astronomy

Mar. 29, 2015 Rise Set
Actual Time 6:47 AM CDT 7:19 PM CDT
Civil Twilight 6:19 AM CDT 7:47 PM CDT
Nautical Twilight 5:47 AM CDT 8:19 PM CDT
Astronomical Twilight 5:14 AM CDT 8:53 PM CDT
Moon 2:13 PM CDT (3/29) 3:35 AM CDT (3/29)
Length of Visible Light 13h 27m
Length of Day
12h 32m
Tomorrow will be 2m 42s longer.
Waxing Gibbous, 75% of the Moon is Illuminated
Today
Waxing Gibbous
Apr 4
Full
Apr 11
Last Quarter
Apr 18
New
Apr 25
First Quarter

Today's Extremes

State Highs State Lows

Community

WunderPhotos

Upload Photos

1,809,392 photos uploaded!

Nearby

Air Quality

  Air Quality AQ Index Pollutant
Yesterday Good
OZONE
Yesterday Good
PM2.5
Current Good
OZONE
Current Good
PM2.5
Sunday Moderate
PM2.5
Monday Good
PM2.5
Tuesday Good
PM2.5

Snow Depth

Station Depth Elevation
No new snow has been reported.

Earthquake Activity

City Distance Mag. Time & Date
No recent earthquake activity has been reported nearby.
Minimum magnitude displayed is 2.5.

Coastal Water Temperatures

Place Temperature
No Stations Reporting

Nearby Weather Stations